sensor_id;sensor_type;location;lat;lon;timestamp;temperature;humidity
33831;DHT22;20137;48.834;8.732;2023-04-03T00:00:09;2.40;99.90
33831;DHT22;20137;48.834;8.732;2023-04-03T00:02:35;2.40;99.90
33831;DHT22;20137;48.834;8.732;2023-04-03T00:05:01;2.40;99.90
33831;DHT22;20137;48.834;8.732;2023-04-03T00:07:26;2.30;99.90
33831;DHT22;20137;48.834;8.732;2023-04-03T00:09:52;2.40;99.90
33831;DHT22;20137;48.834;8.732;2023-04-03T00:12:17;2.30;99.90
33831;DHT22;20137;48.834;8.732;2023-04-03T00:14:43;2.30;99.90
33831;DHT22;20137;48.834;8.732;2023-04-03T00:17:09;2.30;99.90
33831;DHT22;20137;48.834;8.732;2023-04-03T00:19:34;2.30;99.90
33831;DHT22;20137;48.834;8.732;2023-04-03T00:22:00;2.30;99.90
33831;DHT22;20137;48.834;8.732;2023-04-03T00:24:26;2.30;99.90
33831;DHT22;20137;48.834;8.732;2023-04-03T00:26:52;2.20;99.90
33831;DHT22;20137;48.834;8.732;2023-04-03T00:29:17;2.20;99.90
33831;DHT22;20137;48.834;8.732;2023-04-03T00:31:43;2.10;99.90
33831;DHT22;20137;48.834;8.732;2023-04-03T00:34:08;2.10;99.90
33831;DHT22;20137;48.834;8.732;2023-04-03T00:36:34;2.10;99.90
33831;DHT22;20137;48.834;8.732;2023-04-03T00:39:00;2.10;99.90
33831;DHT22;20137;48.834;8.732;2023-04-03T00:41:26;2.10;99.90
33831;DHT22;20137;48.834;8.732;2023-04-03T00:43:51;2.00;99.90
33831;DHT22;20137;48.834;8.732;2023-04-03T00:46:17;2.00;99.90
33831;DHT22;20137;48.834;8.732;2023-04-03T00:48:46;2.00;99.90
33831;DHT22;20137;48.834;8.732;2023-04-03T00:51:19;2.00;99.90
33831;DHT22;20137;48.834;8.732;2023-04-03T00:53:51;2.00;99.90
33831;DHT22;20137;48.834;8.732;2023-04-03T00:56:22;2.00;99.90
33831;DHT22;20137;48.834;8.732;2023-04-03T00:58:54;2.00;99.90
33831;DHT22;20137;48.834;8.732;2023-04-03T01:01:25;2.00;99.90
33831;DHT22;20137;48.834;8.732;2023-04-03T01:03:54;1.90;99.90
33831;DHT22;20137;48.834;8.732;2023-04-03T01:06:26;2.00;99.90
33831;DHT22;20137;48.834;8.732;2023-04-03T01:08:53;2.00;99.90
33831;DHT22;20137;48.834;8.732;2023-04-03T01:11:20;2.00;99.90
33831;DHT22;20137;48.834;8.732;2023-04-03T01:13:46;1.90;99.90
33831;DHT22;20137;48.834;8.732;2023-04-03T01:16:12;2.00;99.90
33831;DHT22;20137;48.834;8.732;2023-04-03T01:18:39;1.90;99.90
33831;DHT22;20137;48.834;8.732;2023-04-03T01:21:36;1.90;99.90
33831;DHT22;20137;48.834;8.732;2023-04-03T01:27:12;1.90;99.90
33831;DHT22;20137;48.834;8.732;2023-04-03T01:29:39;1.80;99.90
33831;DHT22;20137;48.834;8.732;2023-04-03T01:32:05;1.80;99.90
33831;DHT22;20137;48.834;8.732;2023-04-03T01:34:31;1.70;99.90
33831;DHT22;20137;48.834;8.732;2023-04-03T01:36:57;1.70;99.90
33831;DHT22;20137;48.834;8.732;2023-04-03T01:39:23;1.70;99.90
33831;DHT22;20137;48.834;8.732;2023-04-03T01:41:49;1.80;99.90
33831;DHT22;20137;48.834;8.732;2023-04-03T01:44:14;1.80;99.90
33831;DHT22;20137;48.834;8.732;2023-04-03T01:46:40;1.80;99.90
33831;DHT22;20137;48.834;8.732;2023-04-03T01:49:07;1.70;99.90
33831;DHT22;20137;48.834;8.732;2023-04-03T01:51:33;1.70;99.90
33831;DHT22;20137;48.834;8.732;2023-04-03T01:53:59;1.70;99.90
33831;DHT22;20137;48.834;8.732;2023-04-03T01:56:24;1.60;99.90
33831;DHT22;20137;48.834;8.732;2023-04-03T01:58:50;1.70;99.90
33831;DHT22;20137;48.834;8.732;2023-04-03T02:01:16;1.60;99.90
33831;DHT22;20137;48.834;8.732;2023-04-03T02:03:42;1.60;99.90
33831;DHT22;20137;48.834;8.732;2023-04-03T02:06:08;1.70;99.90
33831;DHT22;20137;48.834;8.732;2023-04-03T02:08:33;1.70;99.90
33831;DHT22;20137;48.834;8.732;2023-04-03T02:10:59;1.60;99.90
33831;DHT22;20137;48.834;8.732;2023-04-03T02:13:25;1.60;99.90
33831;DHT22;20137;48.834;8.732;2023-04-03T02:15:50;1.60;99.90
33831;DHT22;20137;48.834;8.732;2023-04-03T02:18:17;1.60;99.90
33831;DHT22;20137;48.834;8.732;2023-04-03T02:20:43;1.60;99.90
33831;DHT22;20137;48.834;8.732;2023-04-03T02:23:09;1.60;99.90
33831;DHT22;20137;48.834;8.732;2023-04-03T02:25:35;1.60;99.90
33831;DHT22;20137;48.834;8.732;2023-04-03T02:28:00;1.60;99.90
33831;DHT22;20137;48.834;8.732;2023-04-03T02:30:26;1.50;99.90
33831;DHT22;20137;48.834;8.732;2023-04-03T02:32:52;1.50;99.90
33831;DHT22;20137;48.834;8.732;2023-04-03T02:35:18;1.50;99.90
33831;DHT22;20137;48.834;8.732;2023-04-03T02:37:44;1.50;99.90
33831;DHT22;20137;48.834;8.732;2023-04-03T02:40:09;1.50;99.90
33831;DHT22;20137;48.834;8.732;2023-04-03T02:42:37;1.50;99.90
33831;DHT22;20137;48.834;8.732;2023-04-03T02:45:03;1.40;99.90
33831;DHT22;20137;48.834;8.732;2023-04-03T02:47:29;1.40;99.90
33831;DHT22;20137;48.834;8.732;2023-04-03T02:49:54;1.50;99.90
33831;DHT22;20137;48.834;8.732;2023-04-03T02:52:21;1.40;99.90
33831;DHT22;20137;48.834;8.732;2023-04-03T02:54:46;1.40;99.90
33831;DHT22;20137;48.834;8.732;2023-04-03T02:57:12;1.40;99.90
33831;DHT22;20137;48.834;8.732;2023-04-03T02:59:38;1.40;99.90
33831;DHT22;20137;48.834;8.732;2023-04-03T03:02:09;1.40;99.90
33831;DHT22;20137;48.834;8.732;2023-04-03T03:07:02;1.20;99.90
33831;DHT22;20137;48.834;8.732;2023-04-03T03:09:29;1.30;99.90
33831;DHT22;20137;48.834;8.732;2023-04-03T03:11:55;1.10;99.90
33831;DHT22;20137;48.834;8.732;2023-04-03T03:14:21;1.20;99.90
33831;DHT22;20137;48.834;8.732;2023-04-03T03:16:46;1.20;99.90
33831;DHT22;20137;48.834;8.732;2023-04-03T03:19:12;1.20;99.90
33831;DHT22;20137;48.834;8.732;2023-04-03T03:21:38;1.20;99.90
33831;DHT22;20137;48.834;8.732;2023-04-03T03:24:03;1.20;99.90
33831;DHT22;20137;48.834;8.732;2023-04-03T03:26:29;1.20;99.90
33831;DHT22;20137;48.834;8.732;2023-04-03T03:28:55;1.30;99.90
33831;DHT22;20137;48.834;8.732;2023-04-03T03:31:21;1.30;99.90
33831;DHT22;20137;48.834;8.732;2023-04-03T03:33:47;1.20;99.90
33831;DHT22;20137;48.834;8.732;2023-04-03T03:36:12;1.20;99.90
33831;DHT22;20137;48.834;8.732;2023-04-03T03:38:38;1.20;99.90
33831;DHT22;20137;48.834;8.732;2023-04-03T03:41:04;1.30;99.90
33831;DHT22;20137;48.834;8.732;2023-04-03T03:43:29;1.30;99.90
33831;DHT22;20137;48.834;8.732;2023-04-03T03:45:55;1.30;99.90
33831;DHT22;20137;48.834;8.732;2023-04-03T03:48:22;1.30;99.90
33831;DHT22;20137;48.834;8.732;2023-04-03T03:50:49;1.30;99.90
33831;DHT22;20137;48.834;8.732;2023-04-03T03:53:15;1.30;99.90
33831;DHT22;20137;48.834;8.732;2023-04-03T03:55:40;1.30;99.90
33831;DHT22;20137;48.834;8.732;2023-04-03T03:58:06;1.30;99.90
33831;DHT22;20137;48.834;8.732;2023-04-03T04:00:32;1.30;99.90
33831;DHT22;20137;48.834;8.732;2023-04-03T04:02:58;1.30;99.90
33831;DHT22;20137;48.834;8.732;2023-04-03T04:05:24;1.40;99.90
33831;DHT22;20137;48.834;8.732;2023-04-03T04:07:49;1.50;99.90
33831;DHT22;20137;48.834;8.732;2023-04-03T04:10:16;1.40;99.90
33831;DHT22;20137;48.834;8.732;2023-04-03T04:12:42;1.50;99.90
33831;DHT22;20137;48.834;8.732;2023-04-03T04:15:08;1.50;99.90
33831;DHT22;20137;48.834;8.732;2023-04-03T04:17:34;1.50;99.90
33831;DHT22;20137;48.834;8.732;2023-04-03T04:20:01;1.50;99.90
33831;DHT22;20137;48.834;8.732;2023-04-03T04:22:26;1.60;99.90
33831;DHT22;20137;48.834;8.732;2023-04-03T04:24:52;1.50;99.90
33831;DHT22;20137;48.834;8.732;2023-04-03T04:27:18;1.60;99.90
33831;DHT22;20137;48.834;8.732;2023-04-03T04:29:43;1.50;99.90
33831;DHT22;20137;48.834;8.732;2023-04-03T04:32:09;1.50;99.90
33831;DHT22;20137;48.834;8.732;2023-04-03T04:34:35;1.50;99.90
33831;DHT22;20137;48.834;8.732;2023-04-03T04:37:01;1.60;99.90
33831;DHT22;20137;48.834;8.732;2023-04-03T04:39:26;1.50;99.90
33831;DHT22;20137;48.834;8.732;2023-04-03T04:41:52;1.50;99.90
33831;DHT22;20137;48.834;8.732;2023-04-03T04:44:17;1.50;99.90
33831;DHT22;20137;48.834;8.732;2023-04-03T04:46:43;1.50;99.90
33831;DHT22;20137;48.834;8.732;2023-04-03T04:49:09;1.50;99.90
33831;DHT22;20137;48.834;8.732;2023-04-03T04:51:35;1.60;99.90
33831;DHT22;20137;48.834;8.732;2023-04-03T04:54:00;1.50;99.90
33831;DHT22;20137;48.834;8.732;2023-04-03T04:56:26;1.60;99.90
33831;DHT22;20137;48.834;8.732;2023-04-03T04:58:52;1.50;99.90
33831;DHT22;20137;48.834;8.732;2023-04-03T05:01:17;1.50;99.90
33831;DHT22;20137;48.834;8.732;2023-04-03T05:03:44;1.50;99.90
33831;DHT22;20137;48.834;8.732;2023-04-03T05:06:09;1.60;99.90
33831;DHT22;20137;48.834;8.732;2023-04-03T05:08:35;1.50;99.90
33831;DHT22;20137;48.834;8.732;2023-04-03T05:11:01;1.50;99.90
33831;DHT22;20137;48.834;8.732;2023-04-03T05:13:26;1.50;99.90
33831;DHT22;20137;48.834;8.732;2023-04-03T05:15:52;1.60;99.90
33831;DHT22;20137;48.834;8.732;2023-04-03T05:18:18;1.60;99.90
33831;DHT22;20137;48.834;8.732;2023-04-03T05:20:44;1.60;99.90
33831;DHT22;20137;48.834;8.732;2023-04-03T05:23:10;1.60;99.90
33831;DHT22;20137;48.834;8.732;2023-04-03T05:25:39;1.60;99.90
33831;DHT22;20137;48.834;8.732;2023-04-03T05:28:05;1.70;99.90
33831;DHT22;20137;48.834;8.732;2023-04-03T05:30:31;1.70;99.90
33831;DHT22;20137;48.834;8.732;2023-04-03T05:32:58;1.70;99.90
33831;DHT22;20137;48.834;8.732;2023-04-03T05:35:24;1.70;99.90
33831;DHT22;20137;48.834;8.732;2023-04-03T05:37:50;1.80;99.90
33831;DHT22;20137;48.834;8.732;2023-04-03T05:40:16;1.90;99.90
33831;DHT22;20137;48.834;8.732;2023-04-03T05:42:42;1.90;99.90
33831;DHT22;20137;48.834;8.732;2023-04-03T05:45:07;1.90;99.90
33831;DHT22;20137;48.834;8.732;2023-04-03T05:47:33;2.00;99.90
33831;DHT22;20137;48.834;8.732;2023-04-03T05:49:59;1.90;99.90
33831;DHT22;20137;48.834;8.732;2023-04-03T05:52:30;1.90;99.90
33831;DHT22;20137;48.834;8.732;2023-04-03T05:54:57;1.90;99.90
33831;DHT22;20137;48.834;8.732;2023-04-03T05:57:23;1.90;99.90
33831;DHT22;20137;48.834;8.732;2023-04-03T05:59:49;1.90;99.90
33831;DHT22;20137;48.834;8.732;2023-04-03T06:02:17;2.10;99.90
33831;DHT22;20137;48.834;8.732;2023-04-03T06:04:43;2.10;99.90
33831;DHT22;20137;48.834;8.732;2023-04-03T06:07:12;2.20;99.90
33831;DHT22;20137;48.834;8.732;2023-04-03T06:09:38;2.10;99.90
33831;DHT22;20137;48.834;8.732;2023-04-03T06:12:04;2.00;99.90
33831;DHT22;20137;48.834;8.732;2023-04-03T06:14:30;2.10;99.90
33831;DHT22;20137;48.834;8.732;2023-04-03T06:16:56;2.10;99.90
33831;DHT22;20137;48.834;8.732;2023-04-03T06:19:22;2.20;99.90
33831;DHT22;20137;48.834;8.732;2023-04-03T06:21:48;2.30;99.90
33831;DHT22;20137;48.834;8.732;2023-04-03T06:24:15;2.30;99.90
33831;DHT22;20137;48.834;8.732;2023-04-03T06:26:41;2.50;99.90
33831;DHT22;20137;48.834;8.732;2023-04-03T06:29:07;2.40;99.90
33831;DHT22;20137;48.834;8.732;2023-04-03T06:31:33;2.60;99.90
33831;DHT22;20137;48.834;8.732;2023-04-03T06:34:00;2.50;99.90
33831;DHT22;20137;48.834;8.732;2023-04-03T06:36:25;2.70;99.90
33831;DHT22;20137;48.834;8.732;2023-04-03T06:38:51;2.80;99.90
33831;DHT22;20137;48.834;8.732;2023-04-03T06:41:17;3.00;99.90
33831;DHT22;20137;48.834;8.732;2023-04-03T06:43:43;3.00;99.90
33831;DHT22;20137;48.834;8.732;2023-04-03T06:46:16;2.80;99.90
33831;DHT22;20137;48.834;8.732;2023-04-03T06:48:44;2.90;99.90
33831;DHT22;20137;48.834;8.732;2023-04-03T06:51:29;3.10;99.90
33831;DHT22;20137;48.834;8.732;2023-04-03T06:53:57;3.20;99.90
33831;DHT22;20137;48.834;8.732;2023-04-03T06:56:23;3.30;99.90
33831;DHT22;20137;48.834;8.732;2023-04-03T06:58:51;3.10;99.90
33831;DHT22;20137;48.834;8.732;2023-04-03T07:01:20;3.00;99.90
33831;DHT22;20137;48.834;8.732;2023-04-03T07:03:47;3.00;99.90
33831;DHT22;20137;48.834;8.732;2023-04-03T07:06:14;2.70;99.90
33831;DHT22;20137;48.834;8.732;2023-04-03T07:08:41;2.70;99.90
33831;DHT22;20137;48.834;8.732;2023-04-03T07:11:08;2.80;99.90
33831;DHT22;20137;48.834;8.732;2023-04-03T07:13:34;2.80;99.90
33831;DHT22;20137;48.834;8.732;2023-04-03T07:16:00;2.90;99.90
33831;DHT22;20137;48.834;8.732;2023-04-03T07:18:26;3.10;99.90
33831;DHT22;20137;48.834;8.732;2023-04-03T07:20:52;3.30;99.90
33831;DHT22;20137;48.834;8.732;2023-04-03T07:23:18;2.80;99.90
33831;DHT22;20137;48.834;8.732;2023-04-03T07:25:45;3.00;99.90
33831;DHT22;20137;48.834;8.732;2023-04-03T07:28:12;3.10;99.90
33831;DHT22;20137;48.834;8.732;2023-04-03T07:30:49;3.30;99.90
33831;DHT22;20137;48.834;8.732;2023-04-03T07:33:17;3.40;99.90
33831;DHT22;20137;48.834;8.732;2023-04-03T07:35:43;3.50;99.90
33831;DHT22;20137;48.834;8.732;2023-04-03T07:38:09;3.30;99.90
33831;DHT22;20137;48.834;8.732;2023-04-03T07:40:36;3.10;99.90
33831;DHT22;20137;48.834;8.732;2023-04-03T07:43:02;3.30;99.90
33831;DHT22;20137;48.834;8.732;2023-04-03T07:45:28;3.00;99.90
33831;DHT22;20137;48.834;8.732;2023-04-03T07:47:54;3.10;99.90
33831;DHT22;20137;48.834;8.732;2023-04-03T07:50:20;3.20;99.90
33831;DHT22;20137;48.834;8.732;2023-04-03T07:52:47;3.20;99.90
33831;DHT22;20137;48.834;8.732;2023-04-03T07:55:12;3.30;99.90
33831;DHT22;20137;48.834;8.732;2023-04-03T07:57:38;3.30;99.90
33831;DHT22;20137;48.834;8.732;2023-04-03T08:00:05;3.30;99.90
33831;DHT22;20137;48.834;8.732;2023-04-03T08:02:31;3.30;99.90
33831;DHT22;20137;48.834;8.732;2023-04-03T08:04:58;3.30;99.90
33831;DHT22;20137;48.834;8.732;2023-04-03T08:07:24;3.20;99.90
33831;DHT22;20137;48.834;8.732;2023-04-03T08:09:50;3.20;99.90
33831;DHT22;20137;48.834;8.732;2023-04-03T08:12:17;3.20;99.90
33831;DHT22;20137;48.834;8.732;2023-04-03T08:14:42;3.50;99.90
33831;DHT22;20137;48.834;8.732;2023-04-03T08:17:09;4.00;99.90
33831;DHT22;20137;48.834;8.732;2023-04-03T08:19:38;3.90;99.90
33831;DHT22;20137;48.834;8.732;2023-04-03T08:22:04;4.00;99.90
33831;DHT22;20137;48.834;8.732;2023-04-03T08:24:31;4.40;99.90
33831;DHT22;20137;48.834;8.732;2023-04-03T08:26:57;4.70;99.90
33831;DHT22;20137;48.834;8.732;2023-04-03T08:29:23;4.70;99.90
33831;DHT22;20137;48.834;8.732;2023-04-03T08:31:49;4.50;99.90
33831;DHT22;20137;48.834;8.732;2023-04-03T08:34:16;4.20;99.90
33831;DHT22;20137;48.834;8.732;2023-04-03T08:36:42;4.40;99.90
33831;DHT22;20137;48.834;8.732;2023-04-03T08:39:08;4.40;99.90
33831;DHT22;20137;48.834;8.732;2023-04-03T08:41:42;4.40;99.90
33831;DHT22;20137;48.834;8.732;2023-04-03T08:44:38;4.90;99.90
33831;DHT22;20137;48.834;8.732;2023-04-03T08:47:28;5.50;99.90
33831;DHT22;20137;48.834;8.732;2023-04-03T08:50:11;5.20;99.90
33831;DHT22;20137;48.834;8.732;2023-04-03T08:57:45;5.40;99.90
33831;DHT22;20137;48.834;8.732;2023-04-03T09:02:54;5.70;99.90
33831;DHT22;20137;48.834;8.732;2023-04-03T09:05:45;5.30;99.90
33831;DHT22;20137;48.834;8.732;2023-04-03T09:08:21;5.50;99.90
33831;DHT22;20137;48.834;8.732;2023-04-03T09:10:48;5.50;99.90
33831;DHT22;20137;48.834;8.732;2023-04-03T09:13:33;5.60;99.90
33831;DHT22;20137;48.834;8.732;2023-04-03T09:16:15;5.60;99.90
33831;DHT22;20137;48.834;8.732;2023-04-03T09:18:51;5.40;99.90
33831;DHT22;20137;48.834;8.732;2023-04-03T09:21:29;5.20;99.90
33831;DHT22;20137;48.834;8.732;2023-04-03T09:23:59;5.50;99.90
33831;DHT22;20137;48.834;8.732;2023-04-03T09:26:33;5.50;99.90
33831;DHT22;20137;48.834;8.732;2023-04-03T09:29:04;5.00;99.90
33831;DHT22;20137;48.834;8.732;2023-04-03T09:31:37;4.90;99.90
33831;DHT22;20137;48.834;8.732;2023-04-03T09:34:07;5.00;99.90
33831;DHT22;20137;48.834;8.732;2023-04-03T09:36:41;5.20;99.90
33831;DHT22;20137;48.834;8.732;2023-04-03T09:39:21;5.10;99.90
33831;DHT22;20137;48.834;8.732;2023-04-03T09:41:57;5.10;99.90
33831;DHT22;20137;48.834;8.732;2023-04-03T09:44:31;5.10;99.90
33831;DHT22;20137;48.834;8.732;2023-04-03T09:46:58;4.90;99.90
33831;DHT22;20137;48.834;8.732;2023-04-03T09:49:23;4.90;99.90
33831;DHT22;20137;48.834;8.732;2023-04-03T09:51:49;4.90;99.90
33831;DHT22;20137;48.834;8.732;2023-04-03T09:54:44;4.80;99.90
33831;DHT22;20137;48.834;8.732;2023-04-03T09:57:12;5.10;99.90
33831;DHT22;20137;48.834;8.732;2023-04-03T09:59:56;5.40;99.90
33831;DHT22;20137;48.834;8.732;2023-04-03T10:02:37;5.60;99.90
33831;DHT22;20137;48.834;8.732;2023-04-03T10:05:26;5.60;99.90
33831;DHT22;20137;48.834;8.732;2023-04-03T10:10:32;5.60;99.90
33831;DHT22;20137;48.834;8.732;2023-04-03T10:13:18;5.70;99.90
33831;DHT22;20137;48.834;8.732;2023-04-03T10:18:38;5.30;99.90
33831;DHT22;20137;48.834;8.732;2023-04-03T10:21:19;5.70;99.90
33831;DHT22;20137;48.834;8.732;2023-04-03T10:23:53;5.90;99.90
33831;DHT22;20137;48.834;8.732;2023-04-03T10:26:32;5.70;99.90
33831;DHT22;20137;48.834;8.732;2023-04-03T10:29:30;5.80;99.90
33831;DHT22;20137;48.834;8.732;2023-04-03T10:34:38;5.40;99.90
33831;DHT22;20137;48.834;8.732;2023-04-03T10:47:51;5.30;99.90
33831;DHT22;20137;48.834;8.732;2023-04-03T10:53:31;6.00;99.90
33831;DHT22;20137;48.834;8.732;2023-04-03T10:58:40;5.30;99.90
33831;DHT22;20137;48.834;8.732;2023-04-03T11:01:17;4.90;99.90
33831;DHT22;20137;48.834;8.732;2023-04-03T11:03:51;5.00;99.90
33831;DHT22;20137;48.834;8.732;2023-04-03T11:06:20;4.80;99.90
33831;DHT22;20137;48.834;8.732;2023-04-03T11:08:56;4.90;99.90
33831;DHT22;20137;48.834;8.732;2023-04-03T11:11:29;4.80;99.90
33831;DHT22;20137;48.834;8.732;2023-04-03T11:14:01;4.90;99.90
33831;DHT22;20137;48.834;8.732;2023-04-03T11:16:32;4.90;99.90
33831;DHT22;20137;48.834;8.732;2023-04-03T11:21:46;4.60;99.90
33831;DHT22;20137;48.834;8.732;2023-04-03T11:24:24;4.40;99.90
33831;DHT22;20137;48.834;8.732;2023-04-03T11:26:52;4.70;99.90
33831;DHT22;20137;48.834;8.732;2023-04-03T11:29:22;4.90;99.90
33831;DHT22;20137;48.834;8.732;2023-04-03T11:34:39;5.30;99.90
33831;DHT22;20137;48.834;8.732;2023-04-03T11:37:15;5.50;99.90
33831;DHT22;20137;48.834;8.732;2023-04-03T11:39:51;5.50;99.90
33831;DHT22;20137;48.834;8.732;2023-04-03T11:42:34;5.70;99.90
33831;DHT22;20137;48.834;8.732;2023-04-03T11:48:00;6.00;99.90
33831;DHT22;20137;48.834;8.732;2023-04-03T11:50:45;6.00;99.90
33831;DHT22;20137;48.834;8.732;2023-04-03T11:58:19;5.40;99.90
33831;DHT22;20137;48.834;8.732;2023-04-03T12:14:03;5.80;99.90
33831;DHT22;20137;48.834;8.732;2023-04-03T12:16:48;5.60;99.90
33831;DHT22;20137;48.834;8.732;2023-04-03T12:19:34;5.60;99.90
33831;DHT22;20137;48.834;8.732;2023-04-03T12:24:30;5.60;99.90
33831;DHT22;20137;48.834;8.732;2023-04-03T12:35:00;5.30;99.90
33831;DHT22;20137;48.834;8.732;2023-04-03T12:48:29;5.70;99.90
33831;DHT22;20137;48.834;8.732;2023-04-03T12:50:57;5.80;99.90
33831;DHT22;20137;48.834;8.732;2023-04-03T12:53:35;5.90;99.90
33831;DHT22;20137;48.834;8.732;2023-04-03T12:56:27;5.80;99.90
33831;DHT22;20137;48.834;8.732;2023-04-03T12:58:56;6.00;99.90
33831;DHT22;20137;48.834;8.732;2023-04-03T13:01:37;5.50;99.90
33831;DHT22;20137;48.834;8.732;2023-04-03T13:04:03;5.40;99.90
33831;DHT22;20137;48.834;8.732;2023-04-03T13:06:38;5.30;99.90
33831;DHT22;20137;48.834;8.732;2023-04-03T13:09:05;5.40;99.90
33831;DHT22;20137;48.834;8.732;2023-04-03T13:11:35;5.40;99.90
33831;DHT22;20137;48.834;8.732;2023-04-03T13:14:05;5.40;99.90
33831;DHT22;20137;48.834;8.732;2023-04-03T13:16:32;5.10;99.90
33831;DHT22;20137;48.834;8.732;2023-04-03T13:18:58;5.40;99.90
33831;DHT22;20137;48.834;8.732;2023-04-03T13:21:35;5.40;99.90
33831;DHT22;20137;48.834;8.732;2023-04-03T13:24:02;5.50;99.90
33831;DHT22;20137;48.834;8.732;2023-04-03T13:26:31;5.50;99.90
33831;DHT22;20137;48.834;8.732;2023-04-03T13:29:05;5.50;99.90
33831;DHT22;20137;48.834;8.732;2023-04-03T13:31:35;5.70;99.90
33831;DHT22;20137;48.834;8.732;2023-04-03T13:34:17;5.40;99.90
33831;DHT22;20137;48.834;8.732;2023-04-03T13:36:46;5.40;99.90
33831;DHT22;20137;48.834;8.732;2023-04-03T13:39:32;5.00;99.90
33831;DHT22;20137;48.834;8.732;2023-04-03T13:42:15;5.00;99.90
33831;DHT22;20137;48.834;8.732;2023-04-03T13:44:42;5.30;99.90
33831;DHT22;20137;48.834;8.732;2023-04-03T13:47:21;5.60;99.90
33831;DHT22;20137;48.834;8.732;2023-04-03T13:50:01;5.60;99.90
33831;DHT22;20137;48.834;8.732;2023-04-03T13:52:39;5.50;99.90
33831;DHT22;20137;48.834;8.732;2023-04-03T13:55:24;5.70;99.90
33831;DHT22;20137;48.834;8.732;2023-04-03T13:58:02;5.90;99.90
33831;DHT22;20137;48.834;8.732;2023-04-03T14:02:55;6.00;99.50
33831;DHT22;20137;48.834;8.732;2023-04-03T14:05:22;5.50;99.90
33831;DHT22;20137;48.834;8.732;2023-04-03T14:07:48;5.30;99.80
33831;DHT22;20137;48.834;8.732;2023-04-03T14:10:14;5.10;99.90
33831;DHT22;20137;48.834;8.732;2023-04-03T14:12:40;5.20;99.90
33831;DHT22;20137;48.834;8.732;2023-04-03T14:15:18;5.20;99.90
33831;DHT22;20137;48.834;8.732;2023-04-03T14:17:44;5.20;99.90
33831;DHT22;20137;48.834;8.732;2023-04-03T14:20:19;5.40;99.90
33831;DHT22;20137;48.834;8.732;2023-04-03T14:22:46;5.60;99.60
33831;DHT22;20137;48.834;8.732;2023-04-03T14:25:12;5.70;99.90
33831;DHT22;20137;48.834;8.732;2023-04-03T14:27:41;5.80;99.50
33831;DHT22;20137;48.834;8.732;2023-04-03T14:30:12;6.00;99.40
33831;DHT22;20137;48.834;8.732;2023-04-03T14:32:39;5.90;98.90
33831;DHT22;20137;48.834;8.732;2023-04-03T14:35:05;5.70;99.00
33831;DHT22;20137;48.834;8.732;2023-04-03T14:37:32;5.80;99.80
33831;DHT22;20137;48.834;8.732;2023-04-03T14:39:59;5.90;99.20
33831;DHT22;20137;48.834;8.732;2023-04-03T14:42:28;5.90;99.10
33831;DHT22;20137;48.834;8.732;2023-04-03T14:44:55;5.90;99.00
33831;DHT22;20137;48.834;8.732;2023-04-03T14:47:24;5.70;99.00
33831;DHT22;20137;48.834;8.732;2023-04-03T14:49:51;5.90;99.00
33831;DHT22;20137;48.834;8.732;2023-04-03T14:52:27;5.90;99.00
33831;DHT22;20137;48.834;8.732;2023-04-03T14:54:55;5.90;98.50
33831;DHT22;20137;48.834;8.732;2023-04-03T14:57:24;5.80;98.30
33831;DHT22;20137;48.834;8.732;2023-04-03T14:59:50;5.70;98.60
33831;DHT22;20137;48.834;8.732;2023-04-03T15:04:55;5.60;98.90
33831;DHT22;20137;48.834;8.732;2023-04-03T15:07:23;5.50;98.90
33831;DHT22;20137;48.834;8.732;2023-04-03T15:09:49;5.60;98.60
33831;DHT22;20137;48.834;8.732;2023-04-03T15:12:15;5.40;98.70
33831;DHT22;20137;48.834;8.732;2023-04-03T15:14:41;5.20;99.00
33831;DHT22;20137;48.834;8.732;2023-04-03T15:17:13;5.40;99.20
33831;DHT22;20137;48.834;8.732;2023-04-03T15:19:40;5.70;99.40
33831;DHT22;20137;48.834;8.732;2023-04-03T15:22:06;5.80;98.60
33831;DHT22;20137;48.834;8.732;2023-04-03T15:24:32;5.70;98.80
33831;DHT22;20137;48.834;8.732;2023-04-03T15:26:58;5.90;98.30
33831;DHT22;20137;48.834;8.732;2023-04-03T15:29:23;5.80;97.90
33831;DHT22;20137;48.834;8.732;2023-04-03T15:31:49;5.70;98.20
33831;DHT22;20137;48.834;8.732;2023-04-03T15:34:18;5.40;98.70
33831;DHT22;20137;48.834;8.732;2023-04-03T15:36:43;5.20;98.40
33831;DHT22;20137;48.834;8.732;2023-04-03T15:39:09;5.40;98.60
33831;DHT22;20137;48.834;8.732;2023-04-03T15:41:35;5.40;98.40
33831;DHT22;20137;48.834;8.732;2023-04-03T15:44:00;5.40;99.10
33831;DHT22;20137;48.834;8.732;2023-04-03T15:46:26;5.40;98.50
33831;DHT22;20137;48.834;8.732;2023-04-03T15:48:52;5.40;98.40
33831;DHT22;20137;48.834;8.732;2023-04-03T15:51:18;5.30;98.20
33831;DHT22;20137;48.834;8.732;2023-04-03T15:53:43;5.30;98.20
33831;DHT22;20137;48.834;8.732;2023-04-03T15:56:09;5.50;98.80
33831;DHT22;20137;48.834;8.732;2023-04-03T15:58:37;5.50;97.10
33831;DHT22;20137;48.834;8.732;2023-04-03T16:01:03;5.70;98.30
33831;DHT22;20137;48.834;8.732;2023-04-03T16:03:28;5.60;97.60
33831;DHT22;20137;48.834;8.732;2023-04-03T16:05:55;5.50;97.90
33831;DHT22;20137;48.834;8.732;2023-04-03T16:08:21;5.40;97.70
33831;DHT22;20137;48.834;8.732;2023-04-03T16:10:46;5.40;97.80
33831;DHT22;20137;48.834;8.732;2023-04-03T16:13:13;5.30;98.20
33831;DHT22;20137;48.834;8.732;2023-04-03T16:15:39;5.40;98.20
33831;DHT22;20137;48.834;8.732;2023-04-03T16:18:05;5.40;98.70
33831;DHT22;20137;48.834;8.732;2023-04-03T16:20:31;5.50;98.00
33831;DHT22;20137;48.834;8.732;2023-04-03T16:22:58;5.30;98.10
33831;DHT22;20137;48.834;8.732;2023-04-03T16:25:25;5.50;97.90
33831;DHT22;20137;48.834;8.732;2023-04-03T16:27:52;5.40;97.70
33831;DHT22;20137;48.834;8.732;2023-04-03T16:30:18;5.50;97.60
33831;DHT22;20137;48.834;8.732;2023-04-03T16:32:44;5.60;97.60
33831;DHT22;20137;48.834;8.732;2023-04-03T16:35:10;5.50;97.40
33831;DHT22;20137;48.834;8.732;2023-04-03T16:37:37;5.40;97.70
33831;DHT22;20137;48.834;8.732;2023-04-03T16:40:04;5.20;97.30
33831;DHT22;20137;48.834;8.732;2023-04-03T16:42:30;5.20;98.10
33831;DHT22;20137;48.834;8.732;2023-04-03T16:44:56;5.20;97.90
33831;DHT22;20137;48.834;8.732;2023-04-03T16:47:21;5.10;98.10
33831;DHT22;20137;48.834;8.732;2023-04-03T16:49:47;5.20;98.40
33831;DHT22;20137;48.834;8.732;2023-04-03T16:52:13;5.00;98.20
33831;DHT22;20137;48.834;8.732;2023-04-03T16:54:42;4.90;98.70
33831;DHT22;20137;48.834;8.732;2023-04-03T16:57:08;4.90;98.70
33831;DHT22;20137;48.834;8.732;2023-04-03T16:59:34;4.80;98.90
33831;DHT22;20137;48.834;8.732;2023-04-03T17:02:00;4.90;98.90
33831;DHT22;20137;48.834;8.732;2023-04-03T17:04:25;4.80;98.80
33831;DHT22;20137;48.834;8.732;2023-04-03T17:06:51;4.80;98.40
33831;DHT22;20137;48.834;8.732;2023-04-03T17:09:17;4.80;98.80
33831;DHT22;20137;48.834;8.732;2023-04-03T17:11:43;4.80;99.10
33831;DHT22;20137;48.834;8.732;2023-04-03T17:14:08;4.80;99.30
33831;DHT22;20137;48.834;8.732;2023-04-03T17:16:36;4.70;98.60
33831;DHT22;20137;48.834;8.732;2023-04-03T17:19:02;4.70;98.90
33831;DHT22;20137;48.834;8.732;2023-04-03T17:21:29;4.60;98.90
33831;DHT22;20137;48.834;8.732;2023-04-03T17:23:57;4.60;99.20